| time (UTC) | temp F | wind direction | speed MPH | gust MPH | rain 1hr in | rain 24hr in | rain mn in | humidity % | barometer mb |
| 20260505210001 | 45 | 178 | 5.0 | 9.0 | 0.09 | 0.09 | 0.09 | 88 | 1004.8 |
| 20260505204550 | 42 | 179 | 1.0 | 9.0 | 0.09 | 0.09 | 0.09 | 88 | 1005.1 |
| 20260505203048 | 41 | 202 | 7.0 | 12.0 | 0.08 | 0.08 | 0.08 | 85 | 1005.4 |
| 20260505201544 | 47 | 193 | 8.0 | 13.0 | 0.03 | 0.03 | 0.03 | 69 | 1005.3 |
| 20260505200056 | 49 | 255 | 4.0 | 13.0 | 0.00 | 0.00 | 0.00 | 71 | 1004.0 |
| 20260505194544 | 53 | 200 | 7.0 | 13.0 | 0.00 | 0.00 | 0.00 | 56 | 1004.2 |
| 20260505193041 | 52 | 231 | 7.0 | 14.0 | 0.00 | 0.00 | 0.00 | 59 | 1003.8 |
| 20260505191546 | 54 | 181 | 8.0 | 20.0 | 0.00 | 0.00 | 0.00 | 52 | 1003.7 |
| 20260505190040 | 54 | 178 | 7.0 | 13.0 | 0.00 | 0.00 | 0.00 | 51 | 1004.0 |
| 20260505184529 | 54 | 359 | 9.0 | 16.0 | 0.00 | 0.00 | 0.00 | 51 | 1004.2 |
| 20260505183029 | 53 | 192 | 7.0 | 13.0 | 0.00 | 0.00 | 0.00 | 58 | 1004.2 |
| 20260505181521 | 51 | 156 | 7.0 | 13.0 | 0.00 | 0.00 | 0.00 | 65 | 1004.4 |
| 20260505180022 | 50 | 191 | 5.0 | 13.0 | 0.00 | 0.00 | 0.00 | 67 | 1004.7 |
| 20260505174515 | 49 | 239 | 7.0 | 12.0 | 0.00 | 0.00 | 0.00 | 71 | 1004.7 |
| 20260505173014 | 48 | 224 | 4.0 | 14.0 | 0.00 | 0.00 | 0.00 | 76 | 1004.9 |
| 20260505171512 | 48 | 192 | 7.0 | 13.0 | 0.00 | 0.00 | 0.00 | 74 | 1004.8 |
| 20260505170010 | 48 | 186 | 6.0 | 10.0 | 0.00 | 0.00 | 0.00 | 72 | 1004.5 |
| 20260505164605 | 47 | 190 | 5.0 | 11.0 | 0.00 | 0.00 | 0.00 | 72 | 1004.4 |
| 20260505163057 | 48 | 182 | 5.0 | 10.0 | 0.00 | 0.00 | 0.00 | 73 | 1004.3 |
| 20260505161604 | 47 | 250 | 6.0 | 16.0 | 0.00 | 0.00 | 0.00 | 74 | 1004.4 |
| 20260505153059 | 45 | 205 | 4.0 | 11.0 | 0.00 | 0.00 | 0.00 | 80 | 1004.3 |
| 20260505151551 | 44 | 205 | 6.0 | 13.0 | 0.00 | 0.00 | 0.00 | 82 | 1004.4 |
| 20260505124521 | 41 | 193 | 0.0 | 2.0 | 0.00 | 0.00 | 0.00 | 87 | 1003.4 |
| 20260505123016 | 41 | 193 | 1.0 | 5.0 | 0.00 | 0.00 | 0.00 | 86 | 1003.4 |
| 20260505121518 | 42 | 193 | 1.0 | 5.0 | 0.00 | 0.00 | 0.00 | 87 | 1003.4 |
| 20260505120028 | 41 | 193 | 3.0 | 5.0 | 0.00 | 0.00 | 0.00 | 87 | 1003.6 |
| 20260505114512 | 41 | 194 | 2.0 | 7.0 | 0.00 | 0.00 | 0.00 | 86 | 1003.9 |
| 20260505113009 | 42 | 194 | 2.0 | 10.0 | 0.00 | 0.00 | 0.00 | 85 | 1003.8 |
| 20260505111556 | 42 | 194 | 3.0 | 9.0 | 0.00 | 0.00 | 0.00 | 84 | 1004.2 |
| 20260505101551 | 44 | 219 | 5.0 | 11.0 | 0.00 | 0.00 | 0.00 | 76 | 1004.3 |
| 20260505100043 | 44 | 191 | 4.0 | 10.0 | 0.00 | 0.00 | 0.00 | 72 | 1004.2 |
| 20260505094541 | 45 | 229 | 1.0 | 8.0 | 0.00 | 0.00 | 0.00 | 69 | 1004.0 |
| 20260505093037 | 45 | 228 | 4.0 | 10.0 | 0.00 | 0.00 | 0.00 | 68 | 1004.1 |
| 20260505091524 | 46 | 170 | 5.0 | 13.0 | 0.00 | 0.00 | 0.00 | 68 | 1004.3 |
| 20260505090023 | 46 | 170 | 2.0 | 10.0 | 0.00 | 0.00 | 0.00 | 67 | 1004.6 |
| 20260505084524 | 46 | 170 | 1.0 | 10.0 | 0.00 | 0.00 | 0.00 | 66 | 1004.5 |
| 20260505083023 | 46 | 170 | 4.0 | 14.0 | 0.00 | 0.00 | 0.00 | 66 | 1004.7 |
| 20260505081518 | 47 | 177 | 4.0 | 8.0 | 0.00 | 0.00 | 0.00 | 65 | 1004.9 |
| 20260505080018 | 47 | 177 | 3.0 | 8.0 | 0.00 | 0.00 | 0.00 | 65 | 1004.7 |
| 20260505074517 | 47 | 198 | 4.0 | 11.0 | 0.00 | 0.00 | 0.00 | 64 | 1004.2 |
| 20260505073017 | 47 | 181 | 4.0 | 13.0 | 0.00 | 0.00 | 0.00 | 63 | 1003.9 |
| 20260505071513 | 47 | 189 | 7.0 | 12.0 | 0.00 | 0.00 | 0.00 | 62 | 1003.7 |
| 20260505070002 | 47 | 189 | 5.0 | 11.0 | 0.00 | 0.00 | 0.00 | 63 | 1003.7 |
| 20260505064600 | 48 | 181 | 2.0 | 11.0 | 0.00 | 0.00 | 0.00 | 63 | 1003.7 |
| 20260505063057 | 48 | 185 | 4.0 | 13.0 | 0.00 | 0.00 | 0.00 | 63 | 1003.8 |
| 20260505061555 | 48 | 188 | 4.0 | 11.0 | 0.00 | 0.00 | 0.00 | 62 | 1004.2 |
| 20260505060053 | 48 | 183 | 2.0 | 11.0 | 0.00 | 0.00 | 0.00 | 61 | 1004.2 |
| 20260505054551 | 49 | 170 | 5.0 | 12.0 | 0.00 | 0.00 | 0.00 | 60 | 1004.2 |
| 20260505053048 | 49 | 196 | 5.0 | 12.0 | 0.00 | 0.00 | 0.00 | 59 | 1004.6 |
| 20260505051530 | 49 | 214 | 3.0 | 14.0 | 0.00 | 0.00 | 0.00 | 57 | 1004.7 |
| 20260505041520 | 50 | 195 | 4.0 | 10.0 | 0.00 | 0.00 | 0.00 | 50 | 1004.0 |
| 20260505040013 | 51 | 170 | 2.0 | 8.0 | 0.00 | 0.00 | 0.00 | 50 | 1004.4 |
| 20260505034512 | 51 | 187 | 5.0 | 12.0 | 0.00 | 0.00 | 0.00 | 50 | 1004.2 |
| 20260505033013 | 51 | 170 | 6.0 | 12.0 | 0.00 | 0.00 | 0.00 | 50 | 1004.1 |
| 20260505031510 | 51 | 198 | 5.0 | 11.0 | 0.00 | 0.00 | 0.00 | 54 | 1003.8 |
| 20260505030010 | 51 | 199 | 6.0 | 10.0 | 0.00 | 0.00 | 0.00 | 54 | 1003.7 |
| 20260505024607 | 52 | 180 | 5.0 | 11.0 | 0.00 | 0.00 | 0.00 | 52 | 1003.6 |
| 20260505023102 | 52 | 206 | 7.0 | 15.0 | 0.00 | 0.00 | 0.00 | 50 | 1003.3 |
| 20260505021558 | 53 | 175 | 6.0 | 13.0 | 0.00 | 0.00 | 0.00 | 48 | 1003.4 |
| 20260505020057 | 53 | 359 | 6.0 | 13.0 | 0.00 | 0.00 | 0.00 | 46 | 1003.4 |
| 20260505014557 | 54 | 359 | 6.0 | 12.0 | 0.00 | 0.00 | 0.00 | 43 | 1003.7 |
| 20260505013121 | 54 | 216 | 7.0 | 13.0 | 0.00 | 0.00 | 0.00 | 41 | 1003.5 |
| 20260505011609 | 55 | 204 | 5.0 | 13.0 | 0.00 | 0.00 | 0.00 | 40 | 1003.4 |
| 20260505010110 | 55 | 174 | 8.0 | 14.0 | 0.00 | 0.00 | 0.00 | 38 | 1003.5 |
| 20260505004555 | 56 | 191 | 8.0 | 13.0 | 0.00 | 0.00 | 0.00 | 37 | 1003.5 |
| 20260505003043 | 56 | 170 | 6.0 | 11.0 | 0.00 | 0.00 | 0.00 | 37 | 1003.0 |
| 20260505001543 | 56 | 212 | 5.0 | 15.0 | 0.00 | 0.00 | 0.00 | 42 | 1003.4 |
| 20260505000054 | 57 | 156 | 8.0 | 16.0 | 0.00 | 0.00 | 0.00 | 39 | 1003.4 |
| 20260504234542 | 58 | 201 | 9.0 | 18.0 | 0.00 | 0.00 | 0.00 | 39 | 1003.5 |
| 20260504233044 | 58 | 222 | 8.0 | 16.0 | 0.00 | 0.00 | 0.00 | 36 | 1003.8 |
| 20260504231543 | 59 | 168 | 7.0 | 20.0 | 0.00 | 0.00 | 0.00 | 36 | 1003.5 |
| 20260504230041 | 60 | 359 | 9.0 | 16.0 | 0.00 | 0.00 | 0.00 | 32 | 1003.3 |
| 20260504224540 | 61 | 191 | 9.0 | 18.0 | 0.00 | 0.00 | 0.00 | 30 | 1003.4 |
| 20260504223023 | 62 | 193 | 7.0 | 15.0 | 0.00 | 0.00 | 0.00 | 29 | 1003.5 |
| 20260504221522 | 62 | 207 | 6.0 | 19.0 | 0.00 | 0.00 | 0.00 | 28 | 1003.6 |
| 20260504220004 | 61 | 359 | 7.0 | 14.0 | 0.00 | 0.00 | 0.00 | 27 | 1003.7 |
| 20260504214501 | 61 | 231 | 8.0 | 18.0 | 0.00 | 0.00 | 0.00 | 28 | 1003.3 |
| 20260504213047 | 63 | 188 | 9.0 | 20.0 | 0.00 | 0.00 | 0.00 | 24 | 1003.0 |
| 20260504211543 | 64 | 171 | 9.0 | 18.0 | 0.00 | 0.00 | 0.00 | 25 | 1002.8 |